createdAt,value
2018-04-30T00:00:28.770Z,81.30
2018-04-30T00:03:04.462Z,81.50
2018-04-30T00:05:39.680Z,81.50
2018-04-30T00:08:14.777Z,81.60
2018-04-30T00:10:51.173Z,81.70
2018-04-30T00:13:27.837Z,81.80
2018-04-30T00:16:03.264Z,81.50
2018-04-30T00:18:39.045Z,81.60
2018-04-30T00:21:16.377Z,81.20
2018-04-30T00:23:52.116Z,81.10
2018-04-30T00:26:28.906Z,81.20
2018-04-30T00:29:04.788Z,81.40
2018-04-30T00:31:41.494Z,81.40
2018-04-30T00:34:17.162Z,81.10
2018-04-30T00:36:52.476Z,81.20
2018-04-30T00:39:28.405Z,81.40
2018-04-30T00:42:03.819Z,81.70
2018-04-30T00:44:39.133Z,81.70
2018-04-30T00:47:15.369Z,82.80
2018-04-30T00:49:51.906Z,82.30
2018-04-30T00:52:28.231Z,82.60
2018-04-30T00:55:03.168Z,83.30
2018-04-30T00:57:38.660Z,82.00
2018-04-30T01:00:14.038Z,81.80
2018-04-30T01:02:50.180Z,82.10
2018-04-30T01:05:25.914Z,82.10
2018-04-30T01:08:01.071Z,82.10
2018-04-30T01:10:37.461Z,81.70
2018-04-30T01:13:14.741Z,81.60
2018-04-30T01:15:49.822Z,81.60
2018-04-30T01:18:25.335Z,81.70
2018-04-30T01:21:02.002Z,81.80
2018-04-30T01:23:37.646Z,81.70
2018-04-30T01:26:14.710Z,82.20
2018-04-30T01:28:50.449Z,82.00
2018-04-30T01:31:25.776Z,81.80
2018-04-30T01:34:01.390Z,82.00
2018-04-30T01:36:36.437Z,82.00
2018-04-30T01:39:11.748Z,82.30
2018-04-30T01:41:47.700Z,82.40
2018-04-30T01:44:24.110Z,82.70
2018-04-30T01:47:00.080Z,82.60
2018-04-30T01:49:36.083Z,82.20
2018-04-30T01:52:12.006Z,82.20
2018-04-30T01:54:49.841Z,82.40
2018-04-30T01:57:26.909Z,82.40
2018-04-30T02:00:02.029Z,82.30
2018-04-30T02:02:38.804Z,82.30
2018-04-30T02:05:14.484Z,82.20
2018-04-30T02:07:49.289Z,81.40
2018-04-30T02:10:25.837Z,81.60
2018-04-30T02:13:01.917Z,81.30
2018-04-30T02:15:38.581Z,81.20
2018-04-30T02:18:14.488Z,81.40
2018-04-30T02:20:50.084Z,80.80
2018-04-30T02:23:26.476Z,80.70
2018-04-30T02:26:02.496Z,80.30
2018-04-30T02:28:38.260Z,79.80
2018-04-30T02:31:13.512Z,77.30
2018-04-30T02:33:50.057Z,74.90
2018-04-30T02:36:26.732Z,73.40
2018-04-30T02:39:02.789Z,72.50
2018-04-30T02:41:39.159Z,71.60
2018-04-30T02:44:15.523Z,70.70
2018-04-30T02:46:51.589Z,70.10
2018-04-30T02:49:28.959Z,69.70
2018-04-30T02:52:05.232Z,69.80
2018-04-30T02:54:41.837Z,70.30
2018-04-30T02:57:17.914Z,69.50
2018-04-30T02:59:54.254Z,69.40
2018-04-30T03:02:30.251Z,69.40
2018-04-30T03:05:06.940Z,69.40
2018-04-30T03:07:42.496Z,69.30
2018-04-30T03:10:18.043Z,69.20
2018-04-30T03:12:53.919Z,69.20
2018-04-30T03:15:28.809Z,69.50
2018-04-30T03:18:04.457Z,69.30
2018-04-30T03:20:40.646Z,71.00
2018-04-30T03:23:17.143Z,71.10
2018-04-30T03:25:53.669Z,71.60
2018-04-30T03:28:30.081Z,70.60
2018-04-30T03:31:06.121Z,72.50
2018-04-30T03:33:42.466Z,71.90
2018-04-30T03:36:19.065Z,70.90
2018-04-30T03:38:55.344Z,70.90
2018-04-30T03:41:30.874Z,70.70
2018-04-30T03:44:07.747Z,70.80
2018-04-30T03:46:43.102Z,70.60
2018-04-30T03:49:20.913Z,70.40
2018-04-30T03:51:57.257Z,70.40
2018-04-30T03:54:33.062Z,70.90
2018-04-30T03:57:10.672Z,71.60
2018-04-30T03:59:48.596Z,71.00
2018-04-30T04:02:34.441Z,70.70
2018-04-30T04:05:21.111Z,70.20
2018-04-30T04:07:56.269Z,70.10
2018-04-30T04:10:32.468Z,70.00
2018-04-30T04:13:07.484Z,69.80
2018-04-30T04:15:43.265Z,70.00
2018-04-30T04:18:20.564Z,70.20
2018-04-30T04:20:57.097Z,69.60
2018-04-30T04:23:33.064Z,69.70
2018-04-30T04:26:08.921Z,68.60
2018-04-30T04:28:46.857Z,68.30
2018-04-30T04:31:23.392Z,68.00
2018-04-30T04:34:00.371Z,67.40
2018-04-30T04:36:35.674Z,67.50
2018-04-30T04:39:11.902Z,67.30
2018-04-30T04:41:47.332Z,66.60
2018-04-30T04:44:24.473Z,66.30
2018-04-30T04:47:01.818Z,66.00
2018-04-30T04:49:38.288Z,65.00
2018-04-30T04:52:14.544Z,64.50
2018-04-30T04:54:50.377Z,64.40
2018-04-30T04:57:27.916Z,63.40
2018-04-30T05:00:03.662Z,63.20
2018-04-30T05:02:40.712Z,62.40
2018-04-30T05:05:16.150Z,62.60
2018-04-30T05:07:52.660Z,62.60
2018-04-30T05:10:28.575Z,62.50
2018-04-30T05:13:05.134Z,62.50
2018-04-30T05:15:40.929Z,62.30
2018-04-30T05:18:17.088Z,62.10
2018-04-30T05:20:53.192Z,62.10
2018-04-30T05:23:28.037Z,62.30
2018-04-30T05:26:03.976Z,62.20
2018-04-30T05:28:39.747Z,62.20
2018-04-30T05:31:14.885Z,62.20
2018-04-30T05:33:50.038Z,62.50
2018-04-30T05:36:26.921Z,62.50
2018-04-30T05:39:02.231Z,62.30
2018-04-30T05:41:39.419Z,62.30
2018-04-30T05:44:15.159Z,61.40
2018-04-30T05:46:51.861Z,61.40
2018-04-30T05:49:26.648Z,60.90
2018-04-30T05:52:04.171Z,61.40
2018-04-30T05:54:42.703Z,60.40
2018-04-30T05:57:19.696Z,59.90
2018-04-30T05:59:55.916Z,59.90
2018-04-30T06:02:32.635Z,59.00
2018-04-30T06:05:07.776Z,58.40
2018-04-30T06:07:43.715Z,58.10
2018-04-30T06:10:20.224Z,57.50
2018-04-30T06:12:56.743Z,56.80
2018-04-30T06:15:33.421Z,56.40
2018-04-30T06:18:09.520Z,56.50
2018-04-30T06:20:44.615Z,56.70
2018-04-30T06:23:19.737Z,56.20
2018-04-30T06:25:56.886Z,56.30
2018-04-30T06:28:33.716Z,56.00
2018-04-30T06:31:09.777Z,56.80
2018-04-30T06:33:45.528Z,56.70
2018-04-30T06:36:21.888Z,56.30
2018-04-30T06:38:57.243Z,56.60
2018-04-30T06:41:33.141Z,56.60
2018-04-30T06:44:08.569Z,56.00
2018-04-30T06:46:44.630Z,56.40
2018-04-30T06:49:20.996Z,55.70
2018-04-30T06:51:57.109Z,54.80
2018-04-30T06:54:34.305Z,55.00
2018-04-30T06:57:11.949Z,55.10
2018-04-30T06:59:48.584Z,55.10
2018-04-30T07:02:23.363Z,55.40
2018-04-30T07:04:59.652Z,53.90
2018-04-30T07:07:35.803Z,55.20
2018-04-30T07:10:13.652Z,54.40
2018-04-30T07:12:49.399Z,54.40
2018-04-30T07:15:24.585Z,52.80
2018-04-30T07:18:00.964Z,53.40
2018-04-30T07:20:37.142Z,52.80
2018-04-30T07:23:13.372Z,52.00
2018-04-30T07:25:50.305Z,51.20
2018-04-30T07:28:27.356Z,50.30
2018-04-30T07:31:03.116Z,50.30
2018-04-30T07:33:37.909Z,49.30
2018-04-30T07:36:14.001Z,49.60
2018-04-30T07:38:50.983Z,48.80
2018-04-30T07:41:26.497Z,49.40
2018-04-30T07:44:02.494Z,48.30
2018-04-30T07:46:38.649Z,46.90
2018-04-30T07:49:14.264Z,47.20
2018-04-30T07:51:50.632Z,44.60
2018-04-30T07:54:26.498Z,35.20
2018-04-30T07:57:03.543Z,33.80
2018-04-30T07:59:39.505Z,36.70
2018-04-30T08:02:15.728Z,38.00
2018-04-30T08:04:51.355Z,38.10
2018-04-30T08:07:27.059Z,38.10
2018-04-30T08:10:02.640Z,37.00
2018-04-30T08:12:38.388Z,35.00
2018-04-30T08:15:14.828Z,34.50
2018-04-30T08:17:51.210Z,32.50
2018-04-30T08:20:27.365Z,30.90
2018-04-30T08:23:03.634Z,30.40
2018-04-30T08:25:40.488Z,32.10
2018-04-30T08:28:16.404Z,33.20
2018-04-30T08:30:52.438Z,34.90
2018-04-30T08:33:28.180Z,37.40
2018-04-30T08:36:04.232Z,36.70
2018-04-30T08:38:40.274Z,38.00
2018-04-30T08:41:16.922Z,37.90
2018-04-30T08:43:53.557Z,37.40
2018-04-30T08:46:29.070Z,36.90
2018-04-30T08:49:05.205Z,38.30
2018-04-30T08:51:43.141Z,37.00
2018-04-30T08:54:20.314Z,36.80
2018-04-30T08:56:55.484Z,36.40
2018-04-30T08:59:32.198Z,36.40
2018-04-30T09:02:07.028Z,35.80
2018-04-30T09:04:43.661Z,35.70
2018-04-30T09:07:20.515Z,35.70
2018-04-30T09:09:56.756Z,35.80
2018-04-30T09:12:32.768Z,33.00
2018-04-30T09:15:10.250Z,32.90
2018-04-30T09:17:46.407Z,34.40
2018-04-30T09:20:22.433Z,37.60
2018-04-30T09:22:58.808Z,39.50
2018-04-30T09:25:35.179Z,41.00
2018-04-30T09:28:12.005Z,41.20
2018-04-30T09:30:48.400Z,41.10
2018-04-30T09:33:23.642Z,38.40
2018-04-30T09:36:00.246Z,35.20
2018-04-30T09:38:36.417Z,36.50
2018-04-30T09:41:14.201Z,35.10
2018-04-30T09:43:53.863Z,34.70
2018-04-30T09:46:29.607Z,34.50
2018-04-30T09:49:05.651Z,37.40
2018-04-30T09:51:41.586Z,38.90
2018-04-30T09:54:17.781Z,39.70
2018-04-30T09:56:54.522Z,40.50
2018-04-30T09:59:31.644Z,40.90
2018-04-30T10:02:08.452Z,42.30
2018-04-30T10:04:44.056Z,41.50
2018-04-30T10:07:20.820Z,41.40
2018-04-30T10:09:58.923Z,42.20
2018-04-30T10:12:35.454Z,42.80
2018-04-30T10:15:11.903Z,42.40
2018-04-30T10:17:49.404Z,43.00
2018-04-30T10:20:25.627Z,43.40
2018-04-30T10:23:01.391Z,42.90
2018-04-30T10:25:38.144Z,43.00
2018-04-30T10:28:15.305Z,43.20
2018-04-30T10:30:55.181Z,42.70
2018-04-30T10:33:31.519Z,41.70
2018-04-30T10:36:08.073Z,42.90
2018-04-30T10:38:44.134Z,42.70
2018-04-30T10:41:20.530Z,41.70
2018-04-30T10:43:56.305Z,41.70
2018-04-30T10:46:32.046Z,41.40
2018-04-30T10:49:09.093Z,40.50
2018-04-30T10:51:46.084Z,40.10
2018-04-30T10:54:22.447Z,38.30
2018-04-30T10:56:58.287Z,37.50
2018-04-30T10:59:35.999Z,37.20
2018-04-30T11:02:11.751Z,36.30
2018-04-30T11:04:48.230Z,30.00
2018-04-30T11:07:24.193Z,29.90
2018-04-30T11:10:01.243Z,29.10
2018-04-30T11:12:38.260Z,30.00
2018-04-30T11:15:15.105Z,30.00
2018-04-30T11:17:50.315Z,29.60
2018-04-30T11:20:26.605Z,30.30
2018-04-30T11:23:03.188Z,32.00
2018-04-30T11:25:39.981Z,33.20
2018-04-30T11:28:16.645Z,33.70
2018-04-30T11:30:53.433Z,33.10
2018-04-30T11:33:29.373Z,33.10
2018-04-30T11:36:04.179Z,34.00
2018-04-30T11:38:39.649Z,32.40
2018-04-30T11:41:16.548Z,32.70
2018-04-30T11:43:53.408Z,32.20
2018-04-30T11:46:29.358Z,32.20
2018-04-30T11:49:04.239Z,28.40
2018-04-30T11:51:40.247Z,26.60
2018-04-30T11:54:15.702Z,27.20
2018-04-30T11:56:51.754Z,29.10
2018-04-30T11:59:28.737Z,29.70
2018-04-30T12:02:06.134Z,30.00
2018-04-30T12:04:42.092Z,29.90
2018-04-30T12:07:17.525Z,30.30
2018-04-30T12:09:54.389Z,30.50
2018-04-30T12:12:30.476Z,31.60
2018-04-30T12:15:07.237Z,32.50
2018-04-30T12:17:43.260Z,32.70
2018-04-30T12:20:19.933Z,32.50
2018-04-30T12:22:56.652Z,31.00
2018-04-30T12:25:32.876Z,31.60
2018-04-30T12:28:09.648Z,31.50
2018-04-30T12:30:46.502Z,31.70
2018-04-30T12:33:23.009Z,30.40
2018-04-30T12:35:59.656Z,30.90
2018-04-30T12:38:37.353Z,31.20
2018-04-30T12:41:14.065Z,29.20
2018-04-30T12:43:50.357Z,29.10
2018-04-30T12:46:25.764Z,30.00
2018-04-30T12:49:01.644Z,29.20
2018-04-30T12:51:38.840Z,29.60
2018-04-30T12:54:14.901Z,28.90
2018-04-30T12:56:51.533Z,29.80
2018-04-30T12:59:26.651Z,30.00
2018-04-30T13:02:02.314Z,30.50
2018-04-30T13:04:39.376Z,31.40
2018-04-30T13:07:14.832Z,31.30
2018-04-30T13:09:51.169Z,31.60
2018-04-30T13:12:28.341Z,31.00
2018-04-30T13:15:04.072Z,31.40
2018-04-30T13:17:39.969Z,31.00
2018-04-30T13:20:16.157Z,31.20
2018-04-30T13:22:52.017Z,31.10
2018-04-30T13:25:29.640Z,30.30
2018-04-30T13:28:06.385Z,30.60
2018-04-30T13:30:42.171Z,30.30
2018-04-30T13:33:18.501Z,29.80
2018-04-30T13:36:00.478Z,30.60
2018-04-30T13:38:37.388Z,29.80
2018-04-30T13:41:13.115Z,28.10
2018-04-30T13:43:50.119Z,29.20
2018-04-30T13:46:26.237Z,30.00
2018-04-30T13:49:03.218Z,29.10
2018-04-30T13:51:39.794Z,30.20
2018-04-30T13:54:15.920Z,30.30
2018-04-30T13:56:51.420Z,30.20
2018-04-30T13:59:26.423Z,29.60
2018-04-30T14:02:02.412Z,29.60
2018-04-30T14:04:38.749Z,29.60
2018-04-30T14:07:13.972Z,31.00
2018-04-30T14:09:49.911Z,29.10
2018-04-30T14:12:26.403Z,30.50
2018-04-30T14:15:03.102Z,31.40
2018-04-30T14:17:39.765Z,31.80
2018-04-30T14:20:15.693Z,32.30
2018-04-30T14:22:51.941Z,30.10
2018-04-30T14:25:28.096Z,29.90
2018-04-30T14:28:03.984Z,29.20
2018-04-30T14:30:39.850Z,30.40
2018-04-30T14:33:16.109Z,29.50
2018-04-30T14:35:52.451Z,29.10
2018-04-30T14:38:28.812Z,29.30
2018-04-30T14:41:05.289Z,31.40
2018-04-30T14:43:40.339Z,28.20
2018-04-30T14:46:17.578Z,28.40
2018-04-30T14:48:53.333Z,28.40
2018-04-30T14:51:28.590Z,30.10
2018-04-30T14:54:05.040Z,30.30
2018-04-30T14:56:42.596Z,29.30
2018-04-30T14:59:18.537Z,29.60
2018-04-30T15:01:54.796Z,30.50
2018-04-30T15:04:31.555Z,29.80
2018-04-30T15:07:07.684Z,29.50
2018-04-30T15:09:42.923Z,27.90
2018-04-30T15:12:18.453Z,29.10
2018-04-30T15:14:54.152Z,30.00
2018-04-30T15:17:30.320Z,28.50
2018-04-30T15:20:07.881Z,29.10
2018-04-30T15:22:44.471Z,29.00
2018-04-30T15:25:20.473Z,29.50
2018-04-30T15:27:55.141Z,29.10
2018-04-30T15:30:38.225Z,28.90
2018-04-30T15:33:16.310Z,29.60
2018-04-30T15:35:51.787Z,29.70
2018-04-30T15:38:28.135Z,28.80
2018-04-30T15:41:04.872Z,29.10
2018-04-30T15:43:40.764Z,29.50
2018-04-30T15:46:17.552Z,31.30
2018-04-30T15:48:53.356Z,30.70
2018-04-30T15:51:28.368Z,31.60
2018-04-30T15:54:03.732Z,32.50
2018-04-30T15:56:38.863Z,32.40
2018-04-30T15:59:14.679Z,31.50
2018-04-30T16:01:51.433Z,31.40
2018-04-30T16:04:28.144Z,31.10
2018-04-30T16:07:02.941Z,31.60
2018-04-30T16:09:38.725Z,31.80
2018-04-30T16:12:15.377Z,31.60
2018-04-30T16:14:51.610Z,31.90
2018-04-30T16:17:28.490Z,32.10
2018-04-30T16:20:03.669Z,32.70
2018-04-30T16:22:38.656Z,32.50
2018-04-30T16:25:13.532Z,32.70
2018-04-30T16:27:48.488Z,32.70
2018-04-30T16:30:24.536Z,32.10
2018-04-30T16:32:59.885Z,33.30
2018-04-30T16:35:35.858Z,33.90
2018-04-30T16:38:10.714Z,33.60
2018-04-30T16:40:45.807Z,34.50
2018-04-30T16:43:20.996Z,34.20
2018-04-30T16:45:56.150Z,34.50
2018-04-30T16:48:32.351Z,34.30
2018-04-30T16:51:07.868Z,34.50
2018-04-30T16:53:44.096Z,34.40
2018-04-30T16:56:19.305Z,33.40
2018-04-30T16:58:55.805Z,34.20
2018-04-30T17:01:31.400Z,34.30
2018-04-30T17:04:06.856Z,35.10
2018-04-30T17:06:43.436Z,35.60
2018-04-30T17:09:19.179Z,35.40
2018-04-30T17:11:54.192Z,35.20
2018-04-30T17:14:30.121Z,36.00
2018-04-30T17:17:06.785Z,35.40
2018-04-30T17:19:43.052Z,36.10
2018-04-30T17:22:19.926Z,35.40
2018-04-30T17:24:55.017Z,35.70
2018-04-30T17:27:31.739Z,35.40
2018-04-30T17:30:07.710Z,35.70
2018-04-30T17:32:42.917Z,36.40
2018-04-30T17:35:19.255Z,35.90
2018-04-30T17:37:55.077Z,36.80
2018-04-30T17:40:32.304Z,37.30
2018-04-30T17:43:07.627Z,36.20
2018-04-30T17:45:45.328Z,37.80
2018-04-30T17:48:21.558Z,36.90
2018-04-30T17:50:58.052Z,38.00
2018-04-30T17:53:35.164Z,38.40
2018-04-30T17:56:12.047Z,38.90
2018-04-30T17:58:48.898Z,38.80
2018-04-30T18:01:25.055Z,40.70
2018-04-30T18:04:01.812Z,41.00
2018-04-30T18:06:38.520Z,40.40
2018-04-30T18:09:13.904Z,40.60
2018-04-30T18:11:49.910Z,40.80
2018-04-30T18:14:26.071Z,41.20
2018-04-30T18:17:01.381Z,41.20
2018-04-30T18:19:36.586Z,40.90
2018-04-30T18:22:13.532Z,41.70
2018-04-30T18:24:49.945Z,41.60
2018-04-30T18:27:25.181Z,41.60
2018-04-30T18:30:00.480Z,42.20
2018-04-30T18:32:37.538Z,42.00
2018-04-30T18:35:14.726Z,42.90
2018-04-30T18:37:50.779Z,43.80
2018-04-30T18:40:26.930Z,43.90
2018-04-30T18:43:03.403Z,44.50
2018-04-30T18:45:39.932Z,45.20
2018-04-30T18:48:18.371Z,45.80
2018-04-30T18:50:54.160Z,45.80
2018-04-30T18:53:29.926Z,44.50
2018-04-30T18:56:05.345Z,45.40
2018-04-30T18:58:42.530Z,45.90
2018-04-30T19:01:18.862Z,46.20
2018-04-30T19:03:55.070Z,46.90
2018-04-30T19:06:32.258Z,48.20
2018-04-30T19:09:09.021Z,49.10
2018-04-30T19:11:46.329Z,49.20
2018-04-30T19:14:23.722Z,49.30
2018-04-30T19:17:01.192Z,49.80
2018-04-30T19:19:38.897Z,49.80
2018-04-30T19:22:14.872Z,49.60
2018-04-30T19:24:52.157Z,49.00
2018-04-30T19:27:28.145Z,48.40
2018-04-30T19:30:03.925Z,48.80
2018-04-30T19:32:41.753Z,49.20
2018-04-30T19:35:18.503Z,48.90
2018-04-30T19:37:54.328Z,47.40
2018-04-30T19:40:31.617Z,49.30
2018-04-30T19:43:08.833Z,48.50
2018-04-30T19:45:45.548Z,48.40
2018-04-30T19:48:22.111Z,48.10
2018-04-30T19:50:58.754Z,48.60
2018-04-30T19:53:34.989Z,48.80
2018-04-30T19:56:11.028Z,49.80
2018-04-30T19:58:47.725Z,48.80
2018-04-30T20:01:24.837Z,48.40
2018-04-30T20:04:00.680Z,48.80
2018-04-30T20:06:36.200Z,48.80
2018-04-30T20:09:14.335Z,48.90
2018-04-30T20:11:50.788Z,48.70
2018-04-30T20:14:29.066Z,49.10
2018-04-30T20:17:06.195Z,49.10
2018-04-30T20:19:42.053Z,48.80
2018-04-30T20:22:16.952Z,49.00
2018-04-30T20:24:52.481Z,49.70
2018-04-30T20:27:29.879Z,48.60
2018-04-30T20:30:05.644Z,49.40
2018-04-30T20:32:41.037Z,48.60
2018-04-30T20:35:16.765Z,49.10
2018-04-30T20:37:52.309Z,50.00
2018-04-30T20:40:29.781Z,49.30
2018-04-30T20:43:05.887Z,49.60
2018-04-30T20:45:42.532Z,49.70
2018-04-30T20:48:17.767Z,50.00
2018-04-30T20:50:54.921Z,50.30
2018-04-30T20:53:32.238Z,50.30
2018-04-30T20:56:07.614Z,51.30
2018-04-30T20:58:44.652Z,51.70
2018-04-30T21:01:21.297Z,51.90
2018-04-30T21:03:58.661Z,52.70
2018-04-30T21:06:34.487Z,52.90
2018-04-30T21:09:14.773Z,52.50
2018-04-30T21:11:51.347Z,53.00
2018-04-30T21:14:27.732Z,52.00
2018-04-30T21:17:02.981Z,52.10
2018-04-30T21:19:38.708Z,52.50
2018-04-30T21:22:16.266Z,52.90
2018-04-30T21:24:51.514Z,52.60
2018-04-30T21:27:27.609Z,51.80
2018-04-30T21:30:03.485Z,51.80
2018-04-30T21:32:38.671Z,51.80
2018-04-30T21:35:14.601Z,52.30
2018-04-30T21:37:49.858Z,52.20
2018-04-30T21:40:26.505Z,51.60
2018-04-30T21:43:02.883Z,51.70
2018-04-30T21:45:38.344Z,51.80
2018-04-30T21:48:15.450Z,52.50
2018-04-30T21:50:50.568Z,53.20
2018-04-30T21:53:27.262Z,54.50
2018-04-30T21:56:03.346Z,54.40
2018-04-30T21:58:40.475Z,54.00
2018-04-30T22:01:15.980Z,54.20
2018-04-30T22:03:51.200Z,52.80
2018-04-30T22:06:29.247Z,53.10
2018-04-30T22:09:04.361Z,53.10
2018-04-30T22:11:39.529Z,53.60
2018-04-30T22:14:15.813Z,52.90
2018-04-30T22:16:52.279Z,53.00
2018-04-30T22:19:28.840Z,53.40
2018-04-30T22:22:03.992Z,53.10
2018-04-30T22:24:41.094Z,53.20
2018-04-30T22:27:16.473Z,52.80
2018-04-30T22:29:53.003Z,52.30
2018-04-30T22:32:28.586Z,52.80
2018-04-30T22:35:04.499Z,54.00
2018-04-30T22:37:39.777Z,53.80
2018-04-30T22:40:16.260Z,53.50
2018-04-30T22:42:51.926Z,53.20
2018-04-30T22:45:27.270Z,53.50
2018-04-30T22:48:03.079Z,54.50
2018-04-30T22:50:38.432Z,55.00
2018-04-30T22:53:14.908Z,54.50
2018-04-30T22:55:50.977Z,53.60
2018-04-30T22:58:27.084Z,54.10
2018-04-30T23:01:03.003Z,54.00
2018-04-30T23:03:38.532Z,54.40
2018-04-30T23:06:14.363Z,54.80
2018-04-30T23:08:49.692Z,54.20
2018-04-30T23:11:26.101Z,53.90
2018-04-30T23:14:01.536Z,53.40
2018-04-30T23:16:36.968Z,53.30
2018-04-30T23:19:14.256Z,53.70
2018-04-30T23:21:51.376Z,54.20
2018-04-30T23:24:28.429Z,53.50
2018-04-30T23:27:03.997Z,53.90
2018-04-30T23:29:40.282Z,53.60
2018-04-30T23:32:16.369Z,53.20
2018-04-30T23:34:51.945Z,53.40
2018-04-30T23:37:28.970Z,53.50
2018-04-30T23:40:04.538Z,53.20
2018-04-30T23:42:40.947Z,53.60
2018-04-30T23:45:17.180Z,53.80
2018-04-30T23:47:53.154Z,54.30
2018-04-30T23:50:28.839Z,54.10
2018-04-30T23:53:03.786Z,53.60
2018-04-30T23:55:40.304Z,54.30
2018-04-30T23:58:18.018Z,54.60
